sensor_id;sensor_type;location;lat;lon;timestamp;P1;durP1;ratioP1;P2;durP2;ratioP2
12445;SDS011;6287;50.984;7.022;2022-08-24T00:01:20;3.50;;;2.97;;
12445;SDS011;6287;50.984;7.022;2022-08-24T00:03:49;4.45;;;3.33;;
12445;SDS011;6287;50.984;7.022;2022-08-24T00:06:17;3.35;;;2.70;;
12445;SDS011;6287;50.984;7.022;2022-08-24T00:08:45;3.30;;;3.00;;
12445;SDS011;6287;50.984;7.022;2022-08-24T00:11:12;2.92;;;2.45;;
12445;SDS011;6287;50.984;7.022;2022-08-24T00:13:40;2.90;;;2.70;;
12445;SDS011;6287;50.984;7.022;2022-08-24T00:16:06;3.47;;;2.55;;
12445;SDS011;6287;50.984;7.022;2022-08-24T00:18:33;4.32;;;2.75;;
12445;SDS011;6287;50.984;7.022;2022-08-24T00:20:59;2.60;;;2.38;;
12445;SDS011;6287;50.984;7.022;2022-08-24T00:23:25;3.80;;;2.88;;
12445;SDS011;6287;50.984;7.022;2022-08-24T00:25:54;3.67;;;2.50;;
12445;SDS011;6287;50.984;7.022;2022-08-24T00:28:22;2.88;;;2.10;;
12445;SDS011;6287;50.984;7.022;2022-08-24T00:30:50;3.60;;;2.38;;
12445;SDS011;6287;50.984;7.022;2022-08-24T00:33:16;2.45;;;2.08;;
12445;SDS011;6287;50.984;7.022;2022-08-24T00:35:42;2.50;;;2.30;;
12445;SDS011;6287;50.984;7.022;2022-08-24T00:38:10;2.50;;;2.30;;
12445;SDS011;6287;50.984;7.022;2022-08-24T00:40:37;3.00;;;2.22;;
12445;SDS011;6287;50.984;7.022;2022-08-24T00:43:08;2.45;;;2.22;;
12445;SDS011;6287;50.984;7.022;2022-08-24T00:45:37;3.15;;;2.00;;
12445;SDS011;6287;50.984;7.022;2022-08-24T00:48:12;3.35;;;2.35;;
12445;SDS011;6287;50.984;7.022;2022-08-24T00:50:54;3.20;;;2.10;;
12445;SDS011;6287;50.984;7.022;2022-08-24T00:53:23;3.90;;;2.10;;
12445;SDS011;6287;50.984;7.022;2022-08-24T00:55:56;2.42;;;1.92;;
12445;SDS011;6287;50.984;7.022;2022-08-24T00:58:34;3.10;;;2.35;;
12445;SDS011;6287;50.984;7.022;2022-08-24T01:01:10;2.90;;;2.15;;
12445;SDS011;6287;50.984;7.022;2022-08-24T01:03:39;2.13;;;1.92;;
12445;SDS011;6287;50.984;7.022;2022-08-24T01:06:09;2.67;;;2.15;;
12445;SDS011;6287;50.984;7.022;2022-08-24T01:08:38;1.63;;;1.52;;
12445;SDS011;6287;50.984;7.022;2022-08-24T01:11:15;1.95;;;1.85;;
12445;SDS011;6287;50.984;7.022;2022-08-24T01:13:44;2.15;;;1.92;;
12445;SDS011;6287;50.984;7.022;2022-08-24T01:16:13;2.17;;;2.05;;
12445;SDS011;6287;50.984;7.022;2022-08-24T01:19:03;3.10;;;2.15;;
12445;SDS011;6287;50.984;7.022;2022-08-24T01:21:39;3.30;;;2.33;;
12445;SDS011;6287;50.984;7.022;2022-08-24T01:24:13;3.38;;;2.10;;
12445;SDS011;6287;50.984;7.022;2022-08-24T01:26:41;2.78;;;2.17;;
12445;SDS011;6287;50.984;7.022;2022-08-24T01:29:17;2.78;;;2.15;;
12445;SDS011;6287;50.984;7.022;2022-08-24T01:31:46;2.83;;;2.30;;
12445;SDS011;6287;50.984;7.022;2022-08-24T01:34:13;1.92;;;1.83;;
12445;SDS011;6287;50.984;7.022;2022-08-24T01:36:45;2.63;;;2.40;;
12445;SDS011;6287;50.984;7.022;2022-08-24T01:39:33;4.15;;;2.30;;
12445;SDS011;6287;50.984;7.022;2022-08-24T01:42:02;2.67;;;2.28;;
12445;SDS011;6287;50.984;7.022;2022-08-24T01:44:31;2.03;;;1.70;;
12445;SDS011;6287;50.984;7.022;2022-08-24T01:46:59;2.50;;;2.25;;
12445;SDS011;6287;50.984;7.022;2022-08-24T01:49:28;2.35;;;2.15;;
12445;SDS011;6287;50.984;7.022;2022-08-24T01:51:58;2.25;;;1.95;;
12445;SDS011;6287;50.984;7.022;2022-08-24T01:54:24;2.40;;;2.20;;
12445;SDS011;6287;50.984;7.022;2022-08-24T01:56:57;2.35;;;2.17;;
12445;SDS011;6287;50.984;7.022;2022-08-24T01:59:25;2.38;;;2.17;;
12445;SDS011;6287;50.984;7.022;2022-08-24T02:02:00;2.40;;;1.90;;
12445;SDS011;6287;50.984;7.022;2022-08-24T02:04:32;2.60;;;2.40;;
12445;SDS011;6287;50.984;7.022;2022-08-24T02:07:00;2.15;;;1.95;;
12445;SDS011;6287;50.984;7.022;2022-08-24T02:09:27;3.58;;;2.13;;
12445;SDS011;6287;50.984;7.022;2022-08-24T02:11:55;2.65;;;2.15;;
12445;SDS011;6287;50.984;7.022;2022-08-24T02:14:21;2.90;;;2.00;;
12445;SDS011;6287;50.984;7.022;2022-08-24T02:16:47;2.25;;;2.10;;
12445;SDS011;6287;50.984;7.022;2022-08-24T02:19:12;2.10;;;1.90;;
12445;SDS011;6287;50.984;7.022;2022-08-24T02:21:38;2.30;;;2.13;;
12445;SDS011;6287;50.984;7.022;2022-08-24T02:24:07;2.50;;;2.25;;
12445;SDS011;6287;50.984;7.022;2022-08-24T02:26:32;2.47;;;2.28;;
12445;SDS011;6287;50.984;7.022;2022-08-24T02:29:00;2.30;;;2.10;;
12445;SDS011;6287;50.984;7.022;2022-08-24T02:31:26;2.22;;;2.03;;
12445;SDS011;6287;50.984;7.022;2022-08-24T02:33:54;3.17;;;2.10;;
12445;SDS011;6287;50.984;7.022;2022-08-24T02:36:19;2.85;;;2.38;;
12445;SDS011;6287;50.984;7.022;2022-08-24T02:38:48;2.85;;;2.08;;
12445;SDS011;6287;50.984;7.022;2022-08-24T02:41:18;2.22;;;2.08;;
12445;SDS011;6287;50.984;7.022;2022-08-24T02:43:48;2.90;;;2.28;;
12445;SDS011;6287;50.984;7.022;2022-08-24T02:46:18;2.55;;;2.10;;
12445;SDS011;6287;50.984;7.022;2022-08-24T02:48:44;2.08;;;1.98;;
12445;SDS011;6287;50.984;7.022;2022-08-24T02:51:17;2.25;;;2.08;;
12445;SDS011;6287;50.984;7.022;2022-08-24T02:53:45;2.60;;;2.40;;
12445;SDS011;6287;50.984;7.022;2022-08-24T02:56:11;2.40;;;2.17;;
12445;SDS011;6287;50.984;7.022;2022-08-24T02:58:37;2.40;;;2.20;;
12445;SDS011;6287;50.984;7.022;2022-08-24T03:01:03;2.33;;;2.13;;
12445;SDS011;6287;50.984;7.022;2022-08-24T03:03:31;2.25;;;2.05;;
12445;SDS011;6287;50.984;7.022;2022-08-24T03:05:57;2.60;;;2.40;;
12445;SDS011;6287;50.984;7.022;2022-08-24T03:08:27;3.40;;;2.20;;
12445;SDS011;6287;50.984;7.022;2022-08-24T03:10:55;2.33;;;2.13;;
12445;SDS011;6287;50.984;7.022;2022-08-24T03:13:25;2.20;;;1.80;;
12445;SDS011;6287;50.984;7.022;2022-08-24T03:15:52;3.83;;;2.37;;
12445;SDS011;6287;50.984;7.022;2022-08-24T03:18:21;2.33;;;2.08;;
12445;SDS011;6287;50.984;7.022;2022-08-24T03:20:50;3.05;;;2.40;;
12445;SDS011;6287;50.984;7.022;2022-08-24T03:23:20;3.03;;;2.40;;
12445;SDS011;6287;50.984;7.022;2022-08-24T03:25:48;2.78;;;2.05;;
12445;SDS011;6287;50.984;7.022;2022-08-24T03:28:16;3.30;;;2.10;;
12445;SDS011;6287;50.984;7.022;2022-08-24T03:30:44;2.30;;;2.10;;
12445;SDS011;6287;50.984;7.022;2022-08-24T03:33:13;2.57;;;2.10;;
12445;SDS011;6287;50.984;7.022;2022-08-24T03:35:41;2.60;;;2.27;;
12445;SDS011;6287;50.984;7.022;2022-08-24T03:38:07;2.85;;;2.30;;
12445;SDS011;6287;50.984;7.022;2022-08-24T03:40:36;2.20;;;2.05;;
12445;SDS011;6287;50.984;7.022;2022-08-24T03:43:04;3.00;;;2.43;;
12445;SDS011;6287;50.984;7.022;2022-08-24T03:45:30;2.17;;;2.07;;
12445;SDS011;6287;50.984;7.022;2022-08-24T03:47:58;3.03;;;2.42;;
12445;SDS011;6287;50.984;7.022;2022-08-24T03:50:24;2.40;;;2.20;;
12445;SDS011;6287;50.984;7.022;2022-08-24T03:52:52;2.28;;;2.08;;
12445;SDS011;6287;50.984;7.022;2022-08-24T03:55:17;2.35;;;2.15;;
12445;SDS011;6287;50.984;7.022;2022-08-24T03:57:44;2.65;;;2.20;;
12445;SDS011;6287;50.984;7.022;2022-08-24T04:00:10;2.90;;;1.90;;
12445;SDS011;6287;50.984;7.022;2022-08-24T04:02:36;2.45;;;2.20;;
12445;SDS011;6287;50.984;7.022;2022-08-24T04:05:05;2.38;;;2.00;;
12445;SDS011;6287;50.984;7.022;2022-08-24T04:07:33;2.50;;;2.30;;
12445;SDS011;6287;50.984;7.022;2022-08-24T04:09:59;2.57;;;2.37;;
12445;SDS011;6287;50.984;7.022;2022-08-24T04:12:27;2.05;;;1.95;;
12445;SDS011;6287;50.984;7.022;2022-08-24T04:14:53;2.43;;;2.03;;
12445;SDS011;6287;50.984;7.022;2022-08-24T04:17:24;3.00;;;2.20;;
12445;SDS011;6287;50.984;7.022;2022-08-24T04:19:52;3.50;;;2.23;;
12445;SDS011;6287;50.984;7.022;2022-08-24T04:22:24;2.97;;;2.30;;
12445;SDS011;6287;50.984;7.022;2022-08-24T04:24:54;2.63;;;2.42;;
12445;SDS011;6287;50.984;7.022;2022-08-24T04:27:24;2.07;;;1.97;;
12445;SDS011;6287;50.984;7.022;2022-08-24T04:29:49;2.92;;;2.28;;
12445;SDS011;6287;50.984;7.022;2022-08-24T04:32:18;2.90;;;2.57;;
12445;SDS011;6287;50.984;7.022;2022-08-24T04:34:43;2.75;;;2.40;;
12445;SDS011;6287;50.984;7.022;2022-08-24T04:37:13;3.10;;;2.60;;
12445;SDS011;6287;50.984;7.022;2022-08-24T04:39:39;2.53;;;2.33;;
12445;SDS011;6287;50.984;7.022;2022-08-24T04:42:08;2.37;;;2.17;;
12445;SDS011;6287;50.984;7.022;2022-08-24T04:44:36;3.40;;;2.80;;
12445;SDS011;6287;50.984;7.022;2022-08-24T04:47:02;3.35;;;2.83;;
12445;SDS011;6287;50.984;7.022;2022-08-24T04:49:28;2.80;;;2.50;;
12445;SDS011;6287;50.984;7.022;2022-08-24T04:51:56;2.80;;;2.40;;
12445;SDS011;6287;50.984;7.022;2022-08-24T04:54:26;2.10;;;1.90;;
12445;SDS011;6287;50.984;7.022;2022-08-24T04:56:51;3.95;;;2.50;;
12445;SDS011;6287;50.984;7.022;2022-08-24T04:59:21;2.50;;;2.30;;
12445;SDS011;6287;50.984;7.022;2022-08-24T05:01:49;2.60;;;2.40;;
12445;SDS011;6287;50.984;7.022;2022-08-24T05:04:18;3.43;;;2.10;;
12445;SDS011;6287;50.984;7.022;2022-08-24T05:06:44;2.55;;;2.10;;
12445;SDS011;6287;50.984;7.022;2022-08-24T05:09:11;2.33;;;2.13;;
12445;SDS011;6287;50.984;7.022;2022-08-24T05:11:42;2.30;;;2.10;;
12445;SDS011;6287;50.984;7.022;2022-08-24T05:14:10;2.33;;;2.10;;
12445;SDS011;6287;50.984;7.022;2022-08-24T05:16:37;2.90;;;2.60;;
12445;SDS011;6287;50.984;7.022;2022-08-24T05:19:05;2.97;;;2.40;;
12445;SDS011;6287;50.984;7.022;2022-08-24T05:21:33;2.67;;;2.47;;
12445;SDS011;6287;50.984;7.022;2022-08-24T05:24:00;2.70;;;2.45;;
12445;SDS011;6287;50.984;7.022;2022-08-24T05:26:28;2.88;;;2.42;;
12445;SDS011;6287;50.984;7.022;2022-08-24T05:28:58;2.57;;;2.37;;
12445;SDS011;6287;50.984;7.022;2022-08-24T05:31:27;2.60;;;2.40;;
12445;SDS011;6287;50.984;7.022;2022-08-24T05:33:53;4.50;;;2.83;;
12445;SDS011;6287;50.984;7.022;2022-08-24T05:36:23;3.40;;;2.60;;
12445;SDS011;6287;50.984;7.022;2022-08-24T05:38:49;10.45;;;3.10;;
12445;SDS011;6287;50.984;7.022;2022-08-24T05:41:22;5.97;;;3.33;;
12445;SDS011;6287;50.984;7.022;2022-08-24T05:43:50;3.28;;;2.92;;
12445;SDS011;6287;50.984;7.022;2022-08-24T05:46:18;4.05;;;2.78;;
12445;SDS011;6287;50.984;7.022;2022-08-24T05:48:44;3.53;;;2.70;;
12445;SDS011;6287;50.984;7.022;2022-08-24T05:51:10;4.50;;;2.72;;
12445;SDS011;6287;50.984;7.022;2022-08-24T05:53:39;4.53;;;2.83;;
12445;SDS011;6287;50.984;7.022;2022-08-24T05:56:10;3.15;;;2.58;;
12445;SDS011;6287;50.984;7.022;2022-08-24T05:58:38;3.05;;;2.75;;
12445;SDS011;6287;50.984;7.022;2022-08-24T06:01:05;2.70;;;2.50;;
12445;SDS011;6287;50.984;7.022;2022-08-24T06:03:39;3.03;;;2.60;;
12445;SDS011;6287;50.984;7.022;2022-08-24T06:06:05;4.13;;;2.47;;
12445;SDS011;6287;50.984;7.022;2022-08-24T06:08:36;3.25;;;2.60;;
12445;SDS011;6287;50.984;7.022;2022-08-24T06:11:06;4.45;;;2.50;;
12445;SDS011;6287;50.984;7.022;2022-08-24T06:13:36;2.78;;;2.28;;
12445;SDS011;6287;50.984;7.022;2022-08-24T06:16:09;2.33;;;2.13;;
12445;SDS011;6287;50.984;7.022;2022-08-24T06:18:37;3.30;;;2.33;;
12445;SDS011;6287;50.984;7.022;2022-08-24T06:21:07;4.93;;;2.88;;
12445;SDS011;6287;50.984;7.022;2022-08-24T06:23:36;3.03;;;2.80;;
12445;SDS011;6287;50.984;7.022;2022-08-24T06:26:08;2.20;;;2.03;;
12445;SDS011;6287;50.984;7.022;2022-08-24T06:28:55;3.58;;;2.13;;
12445;SDS011;6287;50.984;7.022;2022-08-24T06:31:22;6.40;;;2.00;;
12445;SDS011;6287;50.984;7.022;2022-08-24T06:33:48;2.53;;;2.33;;
12445;SDS011;6287;50.984;7.022;2022-08-24T06:36:14;3.78;;;2.22;;
12445;SDS011;6287;50.984;7.022;2022-08-24T06:38:40;3.45;;;2.50;;
12445;SDS011;6287;50.984;7.022;2022-08-24T06:41:06;4.32;;;2.40;;
12445;SDS011;6287;50.984;7.022;2022-08-24T06:43:37;3.88;;;2.72;;
12445;SDS011;6287;50.984;7.022;2022-08-24T06:46:05;2.10;;;2.00;;
12445;SDS011;6287;50.984;7.022;2022-08-24T06:48:33;1.92;;;1.70;;
12445;SDS011;6287;50.984;7.022;2022-08-24T06:50:59;2.20;;;2.00;;
12445;SDS011;6287;50.984;7.022;2022-08-24T06:53:27;2.13;;;1.85;;
12445;SDS011;6287;50.984;7.022;2022-08-24T06:55:56;2.85;;;1.98;;
12445;SDS011;6287;50.984;7.022;2022-08-24T06:58:23;4.05;;;1.80;;
12445;SDS011;6287;50.984;7.022;2022-08-24T07:00:49;2.13;;;1.75;;
12445;SDS011;6287;50.984;7.022;2022-08-24T07:03:15;2.47;;;2.28;;
12445;SDS011;6287;50.984;7.022;2022-08-24T07:05:55;1.83;;;1.48;;
12445;SDS011;6287;50.984;7.022;2022-08-24T07:08:22;1.95;;;1.60;;
12445;SDS011;6287;50.984;7.022;2022-08-24T07:10:50;2.00;;;1.90;;
12445;SDS011;6287;50.984;7.022;2022-08-24T07:13:16;1.88;;;1.52;;
12445;SDS011;6287;50.984;7.022;2022-08-24T07:15:44;2.97;;;2.13;;
12445;SDS011;6287;50.984;7.022;2022-08-24T07:18:14;1.23;;;1.23;;
12445;SDS011;6287;50.984;7.022;2022-08-24T07:20:40;1.88;;;1.77;;
12445;SDS011;6287;50.984;7.022;2022-08-24T07:23:07;1.98;;;1.88;;
12445;SDS011;6287;50.984;7.022;2022-08-24T07:25:33;4.72;;;2.08;;
12445;SDS011;6287;50.984;7.022;2022-08-24T07:28:02;2.20;;;2.05;;
12445;SDS011;6287;50.984;7.022;2022-08-24T07:30:30;2.00;;;1.90;;
12445;SDS011;6287;50.984;7.022;2022-08-24T07:32:58;1.85;;;1.73;;
12445;SDS011;6287;50.984;7.022;2022-08-24T07:35:24;1.92;;;1.83;;
12445;SDS011;6287;50.984;7.022;2022-08-24T07:37:51;2.58;;;2.17;;
12445;SDS011;6287;50.984;7.022;2022-08-24T07:40:22;2.25;;;1.80;;
12445;SDS011;6287;50.984;7.022;2022-08-24T07:42:49;1.65;;;1.55;;
12445;SDS011;6287;50.984;7.022;2022-08-24T07:45:20;2.70;;;1.77;;
12445;SDS011;6287;50.984;7.022;2022-08-24T07:47:46;2.70;;;1.63;;
12445;SDS011;6287;50.984;7.022;2022-08-24T07:50:13;1.70;;;1.60;;
12445;SDS011;6287;50.984;7.022;2022-08-24T07:52:42;1.65;;;1.45;;
12445;SDS011;6287;50.984;7.022;2022-08-24T07:55:11;3.05;;;1.88;;
12445;SDS011;6287;50.984;7.022;2022-08-24T07:57:39;1.90;;;1.70;;
12445;SDS011;6287;50.984;7.022;2022-08-24T08:00:07;3.33;;;1.70;;
12445;SDS011;6287;50.984;7.022;2022-08-24T08:02:38;1.88;;;1.42;;
12445;SDS011;6287;50.984;7.022;2022-08-24T08:05:10;1.92;;;1.60;;
12445;SDS011;6287;50.984;7.022;2022-08-24T08:07:38;2.78;;;1.60;;
12445;SDS011;6287;50.984;7.022;2022-08-24T08:10:04;2.42;;;1.77;;
12445;SDS011;6287;50.984;7.022;2022-08-24T08:12:32;1.77;;;1.67;;
12445;SDS011;6287;50.984;7.022;2022-08-24T08:14:59;2.03;;;1.65;;
12445;SDS011;6287;50.984;7.022;2022-08-24T08:17:27;1.80;;;1.70;;
12445;SDS011;6287;50.984;7.022;2022-08-24T08:19:53;1.85;;;1.67;;
12445;SDS011;6287;50.984;7.022;2022-08-24T08:22:19;1.70;;;1.60;;
12445;SDS011;6287;50.984;7.022;2022-08-24T08:25:08;3.25;;;1.58;;
12445;SDS011;6287;50.984;7.022;2022-08-24T08:27:36;1.95;;;1.60;;
12445;SDS011;6287;50.984;7.022;2022-08-24T08:30:03;1.98;;;1.40;;
12445;SDS011;6287;50.984;7.022;2022-08-24T08:32:30;1.58;;;1.23;;
12445;SDS011;6287;50.984;7.022;2022-08-24T08:34:58;1.85;;;1.30;;
12445;SDS011;6287;50.984;7.022;2022-08-24T08:37:24;2.97;;;1.60;;
12445;SDS011;6287;50.984;7.022;2022-08-24T08:39:49;3.65;;;1.50;;
12445;SDS011;6287;50.984;7.022;2022-08-24T08:42:40;1.35;;;1.35;;
12445;SDS011;6287;50.984;7.022;2022-08-24T08:45:43;3.08;;;1.67;;
12445;SDS011;6287;50.984;7.022;2022-08-24T08:56:55;2.35;;;1.45;;
12445;SDS011;6287;50.984;7.022;2022-08-24T09:02:37;4.72;;;1.42;;
12445;SDS011;6287;50.984;7.022;2022-08-24T09:08:12;1.65;;;1.30;;
12445;SDS011;6287;50.984;7.022;2022-08-24T09:13:20;1.70;;;1.60;;
12445;SDS011;6287;50.984;7.022;2022-08-24T09:19:48;1.85;;;1.75;;
12445;SDS011;6287;50.984;7.022;2022-08-24T09:22:23;1.58;;;1.48;;
12445;SDS011;6287;50.984;7.022;2022-08-24T09:30:14;2.08;;;1.50;;
12445;SDS011;6287;50.984;7.022;2022-08-24T09:35:14;1.63;;;1.52;;
12445;SDS011;6287;50.984;7.022;2022-08-24T09:37:57;1.95;;;1.55;;
12445;SDS011;6287;50.984;7.022;2022-08-24T10:05:54;1.77;;;1.50;;
12445;SDS011;6287;50.984;7.022;2022-08-24T10:11:12;1.38;;;1.27;;
12445;SDS011;6287;50.984;7.022;2022-08-24T10:14:02;2.47;;;1.60;;
12445;SDS011;6287;50.984;7.022;2022-08-24T10:19:39;1.42;;;1.33;;
12445;SDS011;6287;50.984;7.022;2022-08-24T10:25:18;1.33;;;1.23;;
12445;SDS011;6287;50.984;7.022;2022-08-24T10:42:32;4.22;;;1.80;;
12445;SDS011;6287;50.984;7.022;2022-08-24T10:53:32;1.75;;;1.65;;
12445;SDS011;6287;50.984;7.022;2022-08-24T10:56:06;2.33;;;1.60;;
12445;SDS011;6287;50.984;7.022;2022-08-24T10:58:41;1.50;;;1.40;;
12445;SDS011;6287;50.984;7.022;2022-08-24T11:01:20;1.92;;;1.00;;
12445;SDS011;6287;50.984;7.022;2022-08-24T11:03:57;1.50;;;1.10;;
12445;SDS011;6287;50.984;7.022;2022-08-24T11:06:42;1.30;;;1.20;;
12445;SDS011;6287;50.984;7.022;2022-08-24T11:12:34;1.02;;;1.02;;
12445;SDS011;6287;50.984;7.022;2022-08-24T11:15:04;1.40;;;1.30;;
12445;SDS011;6287;50.984;7.022;2022-08-24T11:20:28;1.20;;;1.20;;
12445;SDS011;6287;50.984;7.022;2022-08-24T11:25:29;1.30;;;1.20;;
12445;SDS011;6287;50.984;7.022;2022-08-24T11:28:36;1.70;;;1.25;;
12445;SDS011;6287;50.984;7.022;2022-08-24T11:30:58;1.33;;;1.10;;
12445;SDS011;6287;50.984;7.022;2022-08-24T11:36:15;1.10;;;1.00;;
12445;SDS011;6287;50.984;7.022;2022-08-24T11:38:45;1.65;;;1.10;;
12445;SDS011;6287;50.984;7.022;2022-08-24T11:41:31;1.10;;;1.10;;
12445;SDS011;6287;50.984;7.022;2022-08-24T11:44:09;0.75;;;0.75;;
12445;SDS011;6287;50.984;7.022;2022-08-24T11:47:11;1.38;;;1.00;;
12445;SDS011;6287;50.984;7.022;2022-08-24T11:58:44;1.25;;;1.13;;
12445;SDS011;6287;50.984;7.022;2022-08-24T12:21:48;0.93;;;0.93;;
12445;SDS011;6287;50.984;7.022;2022-08-24T12:27:01;1.00;;;1.00;;
12445;SDS011;6287;50.984;7.022;2022-08-24T12:32:14;1.02;;;1.02;;
12445;SDS011;6287;50.984;7.022;2022-08-24T12:37:33;1.35;;;1.00;;
12445;SDS011;6287;50.984;7.022;2022-08-24T12:42:48;1.17;;;1.10;;
12445;SDS011;6287;50.984;7.022;2022-08-24T12:45:20;1.27;;;0.90;;
12445;SDS011;6287;50.984;7.022;2022-08-24T12:48:09;1.15;;;0.90;;
12445;SDS011;6287;50.984;7.022;2022-08-24T12:53:32;1.20;;;1.10;;
12445;SDS011;6287;50.984;7.022;2022-08-24T13:01:58;1.50;;;0.90;;
12445;SDS011;6287;50.984;7.022;2022-08-24T13:33:17;0.80;;;0.80;;
12445;SDS011;6287;50.984;7.022;2022-08-24T13:41:44;1.90;;;0.90;;
12445;SDS011;6287;50.984;7.022;2022-08-24T13:58:09;1.55;;;1.00;;
12445;SDS011;6287;50.984;7.022;2022-08-24T14:03:31;1.10;;;1.00;;
12445;SDS011;6287;50.984;7.022;2022-08-24T14:11:47;1.20;;;1.00;;
12445;SDS011;6287;50.984;7.022;2022-08-24T14:14:24;1.83;;;0.90;;
12445;SDS011;6287;50.984;7.022;2022-08-24T14:17:12;2.95;;;1.08;;
12445;SDS011;6287;50.984;7.022;2022-08-24T14:29:47;2.83;;;1.27;;
12445;SDS011;6287;50.984;7.022;2022-08-24T14:37:19;1.00;;;1.00;;
12445;SDS011;6287;50.984;7.022;2022-08-24T14:40:22;1.00;;;1.00;;
12445;SDS011;6287;50.984;7.022;2022-08-24T14:48:45;1.27;;;1.10;;
12445;SDS011;6287;50.984;7.022;2022-08-24T15:02:39;1.08;;;0.85;;
12445;SDS011;6287;50.984;7.022;2022-08-24T15:05:23;1.00;;;0.93;;
12445;SDS011;6287;50.984;7.022;2022-08-24T15:08:09;0.90;;;0.90;;
12445;SDS011;6287;50.984;7.022;2022-08-24T15:11:00;0.80;;;0.80;;
12445;SDS011;6287;50.984;7.022;2022-08-24T15:13:28;1.08;;;0.88;;
12445;SDS011;6287;50.984;7.022;2022-08-24T15:16:21;1.20;;;0.85;;
12445;SDS011;6287;50.984;7.022;2022-08-24T15:22:02;1.40;;;0.90;;
12445;SDS011;6287;50.984;7.022;2022-08-24T15:29:33;1.45;;;1.05;;
12445;SDS011;6287;50.984;7.022;2022-08-24T15:32:07;1.15;;;1.00;;
12445;SDS011;6287;50.984;7.022;2022-08-24T15:34:42;0.95;;;0.95;;
12445;SDS011;6287;50.984;7.022;2022-08-24T15:40:23;1.13;;;1.08;;
12445;SDS011;6287;50.984;7.022;2022-08-24T15:42:53;1.77;;;0.88;;
12445;SDS011;6287;50.984;7.022;2022-08-24T15:45:29;1.00;;;1.00;;
12445;SDS011;6287;50.984;7.022;2022-08-24T15:47:56;1.10;;;1.10;;
12445;SDS011;6287;50.984;7.022;2022-08-24T15:50:38;1.10;;;1.10;;
12445;SDS011;6287;50.984;7.022;2022-08-24T15:55:48;1.20;;;1.10;;
12445;SDS011;6287;50.984;7.022;2022-08-24T16:00:45;1.35;;;0.90;;
12445;SDS011;6287;50.984;7.022;2022-08-24T16:03:43;2.38;;;1.30;;
12445;SDS011;6287;50.984;7.022;2022-08-24T16:11:41;1.67;;;1.40;;
12445;SDS011;6287;50.984;7.022;2022-08-24T16:14:55;1.08;;;1.08;;
12445;SDS011;6287;50.984;7.022;2022-08-24T16:19:57;2.25;;;1.55;;
12445;SDS011;6287;50.984;7.022;2022-08-24T16:35:59;2.20;;;1.35;;
12445;SDS011;6287;50.984;7.022;2022-08-24T16:38:26;1.30;;;1.20;;
12445;SDS011;6287;50.984;7.022;2022-08-24T16:40:55;1.00;;;1.00;;
12445;SDS011;6287;50.984;7.022;2022-08-24T16:43:24;1.20;;;1.00;;
12445;SDS011;6287;50.984;7.022;2022-08-24T16:45:51;1.45;;;1.35;;
12445;SDS011;6287;50.984;7.022;2022-08-24T16:48:20;0.98;;;0.98;;
12445;SDS011;6287;50.984;7.022;2022-08-24T16:50:48;1.40;;;1.30;;
12445;SDS011;6287;50.984;7.022;2022-08-24T16:53:20;1.23;;;1.10;;
12445;SDS011;6287;50.984;7.022;2022-08-24T16:55:48;1.20;;;1.20;;
12445;SDS011;6287;50.984;7.022;2022-08-24T16:58:14;1.70;;;1.23;;
12445;SDS011;6287;50.984;7.022;2022-08-24T17:00:43;1.73;;;1.42;;
12445;SDS011;6287;50.984;7.022;2022-08-24T17:03:11;1.10;;;1.10;;
12445;SDS011;6287;50.984;7.022;2022-08-24T17:05:37;1.38;;;1.10;;
12445;SDS011;6287;50.984;7.022;2022-08-24T17:08:05;1.35;;;1.23;;
12445;SDS011;6287;50.984;7.022;2022-08-24T17:10:31;1.15;;;1.08;;
12445;SDS011;6287;50.984;7.022;2022-08-24T17:12:57;1.08;;;0.98;;
12445;SDS011;6287;50.984;7.022;2022-08-24T17:15:23;1.15;;;1.00;;
12445;SDS011;6287;50.984;7.022;2022-08-24T17:18:00;1.17;;;1.13;;
12445;SDS011;6287;50.984;7.022;2022-08-24T17:20:32;1.25;;;1.20;;
12445;SDS011;6287;50.984;7.022;2022-08-24T17:22:58;1.17;;;1.15;;
12445;SDS011;6287;50.984;7.022;2022-08-24T17:25:24;1.63;;;1.20;;
12445;SDS011;6287;50.984;7.022;2022-08-24T17:27:56;1.05;;;1.05;;
12445;SDS011;6287;50.984;7.022;2022-08-24T17:30:22;1.33;;;1.10;;
12445;SDS011;6287;50.984;7.022;2022-08-24T17:32:52;1.10;;;1.10;;
12445;SDS011;6287;50.984;7.022;2022-08-24T17:35:19;1.88;;;1.20;;
12445;SDS011;6287;50.984;7.022;2022-08-24T17:37:48;1.27;;;1.17;;
12445;SDS011;6287;50.984;7.022;2022-08-24T17:40:17;1.25;;;1.15;;
12445;SDS011;6287;50.984;7.022;2022-08-24T17:42:51;1.30;;;1.20;;
12445;SDS011;6287;50.984;7.022;2022-08-24T17:45:17;2.65;;;2.20;;
12445;SDS011;6287;50.984;7.022;2022-08-24T17:47:43;1.90;;;1.35;;
12445;SDS011;6287;50.984;7.022;2022-08-24T17:50:11;1.40;;;1.30;;
12445;SDS011;6287;50.984;7.022;2022-08-24T17:52:38;1.33;;;1.17;;
12445;SDS011;6287;50.984;7.022;2022-08-24T17:55:06;1.60;;;1.50;;
12445;SDS011;6287;50.984;7.022;2022-08-24T17:57:33;1.38;;;1.30;;
12445;SDS011;6287;50.984;7.022;2022-08-24T17:59:59;1.40;;;1.30;;
12445;SDS011;6287;50.984;7.022;2022-08-24T18:02:27;1.30;;;1.30;;
12445;SDS011;6287;50.984;7.022;2022-08-24T18:04:55;1.80;;;1.30;;
12445;SDS011;6287;50.984;7.022;2022-08-24T18:07:21;1.80;;;1.30;;
12445;SDS011;6287;50.984;7.022;2022-08-24T18:09:51;2.33;;;1.58;;
12445;SDS011;6287;50.984;7.022;2022-08-24T18:12:19;1.70;;;1.30;;
12445;SDS011;6287;50.984;7.022;2022-08-24T18:14:46;2.25;;;1.30;;
12445;SDS011;6287;50.984;7.022;2022-08-24T18:17:14;1.92;;;1.40;;
12445;SDS011;6287;50.984;7.022;2022-08-24T18:19:43;2.15;;;1.33;;
12445;SDS011;6287;50.984;7.022;2022-08-24T18:22:09;1.45;;;1.30;;
12445;SDS011;6287;50.984;7.022;2022-08-24T18:24:40;2.25;;;1.60;;
12445;SDS011;6287;50.984;7.022;2022-08-24T18:27:08;2.03;;;1.60;;
12445;SDS011;6287;50.984;7.022;2022-08-24T18:29:39;1.75;;;1.50;;
12445;SDS011;6287;50.984;7.022;2022-08-24T18:32:09;1.33;;;1.23;;
12445;SDS011;6287;50.984;7.022;2022-08-24T18:34:35;1.38;;;1.27;;
12445;SDS011;6287;50.984;7.022;2022-08-24T18:37:02;1.67;;;1.50;;
12445;SDS011;6287;50.984;7.022;2022-08-24T18:39:27;1.70;;;1.60;;
12445;SDS011;6287;50.984;7.022;2022-08-24T18:41:53;1.80;;;1.70;;
12445;SDS011;6287;50.984;7.022;2022-08-24T18:44:24;1.70;;;1.60;;
12445;SDS011;6287;50.984;7.022;2022-08-24T18:46:52;1.45;;;1.33;;
12445;SDS011;6287;50.984;7.022;2022-08-24T18:49:18;1.70;;;1.60;;
12445;SDS011;6287;50.984;7.022;2022-08-24T18:51:44;1.85;;;1.75;;
12445;SDS011;6287;50.984;7.022;2022-08-24T18:54:17;1.80;;;1.50;;
12445;SDS011;6287;50.984;7.022;2022-08-24T18:56:47;2.22;;;1.70;;
12445;SDS011;6287;50.984;7.022;2022-08-24T18:59:13;1.45;;;1.35;;
12445;SDS011;6287;50.984;7.022;2022-08-24T19:01:46;1.88;;;1.70;;
12445;SDS011;6287;50.984;7.022;2022-08-24T19:04:32;2.22;;;1.40;;
12445;SDS011;6287;50.984;7.022;2022-08-24T19:07:00;2.45;;;1.63;;
12445;SDS011;6287;50.984;7.022;2022-08-24T19:09:28;3.88;;;1.58;;
12445;SDS011;6287;50.984;7.022;2022-08-24T19:11:55;1.50;;;1.40;;
12445;SDS011;6287;50.984;7.022;2022-08-24T19:14:24;1.88;;;1.77;;
12445;SDS011;6287;50.984;7.022;2022-08-24T19:16:51;3.10;;;1.70;;
12445;SDS011;6287;50.984;7.022;2022-08-24T19:19:19;3.42;;;1.80;;
12445;SDS011;6287;50.984;7.022;2022-08-24T19:21:45;1.70;;;1.60;;
12445;SDS011;6287;50.984;7.022;2022-08-24T19:24:11;2.00;;;1.80;;
12445;SDS011;6287;50.984;7.022;2022-08-24T19:26:39;1.90;;;1.70;;
12445;SDS011;6287;50.984;7.022;2022-08-24T19:29:04;2.70;;;1.60;;
12445;SDS011;6287;50.984;7.022;2022-08-24T19:31:30;1.83;;;1.73;;
12445;SDS011;6287;50.984;7.022;2022-08-24T19:34:01;1.88;;;1.77;;
12445;SDS011;6287;50.984;7.022;2022-08-24T19:36:27;2.25;;;1.70;;
12445;SDS011;6287;50.984;7.022;2022-08-24T19:38:54;3.45;;;1.70;;
12445;SDS011;6287;50.984;7.022;2022-08-24T19:41:22;2.13;;;1.70;;
12445;SDS011;6287;50.984;7.022;2022-08-24T19:43:51;2.25;;;2.05;;
12445;SDS011;6287;50.984;7.022;2022-08-24T19:46:37;1.60;;;1.50;;
12445;SDS011;6287;50.984;7.022;2022-08-24T19:49:03;2.70;;;2.08;;
12445;SDS011;6287;50.984;7.022;2022-08-24T19:51:32;2.30;;;1.80;;
12445;SDS011;6287;50.984;7.022;2022-08-24T19:53:59;1.80;;;1.70;;